sensor_id;sensor_type;location;lat;lon;timestamp;temperature;humidity
45983;DHT22;31711;47.158;7.346;2024-03-07T00:00:10;5.10;99.90
45983;DHT22;31711;47.158;7.346;2024-03-07T00:02:48;5.10;99.90
45983;DHT22;31711;47.158;7.346;2024-03-07T00:05:15;5.20;99.90
45983;DHT22;31711;47.158;7.346;2024-03-07T00:07:41;5.30;99.90
45983;DHT22;31711;47.158;7.346;2024-03-07T00:10:08;5.30;99.90
45983;DHT22;31711;47.158;7.346;2024-03-07T00:12:35;5.40;99.90
45983;DHT22;31711;47.158;7.346;2024-03-07T00:15:02;5.30;99.90
45983;DHT22;31711;47.158;7.346;2024-03-07T00:17:29;5.30;99.90
45983;DHT22;31711;47.158;7.346;2024-03-07T00:19:54;5.20;99.90
45983;DHT22;31711;47.158;7.346;2024-03-07T00:22:20;5.20;99.90
45983;DHT22;31711;47.158;7.346;2024-03-07T00:24:46;5.30;99.90
45983;DHT22;31711;47.158;7.346;2024-03-07T00:27:16;5.30;99.90
45983;DHT22;31711;47.158;7.346;2024-03-07T00:29:42;5.20;99.90
45983;DHT22;31711;47.158;7.346;2024-03-07T00:32:08;5.10;99.90
45983;DHT22;31711;47.158;7.346;2024-03-07T00:34:35;5.00;99.90
45983;DHT22;31711;47.158;7.346;2024-03-07T00:37:01;5.10;99.90
45983;DHT22;31711;47.158;7.346;2024-03-07T00:39:28;5.10;99.90
45983;DHT22;31711;47.158;7.346;2024-03-07T00:41:54;5.00;99.90
45983;DHT22;31711;47.158;7.346;2024-03-07T00:44:20;5.00;99.90
45983;DHT22;31711;47.158;7.346;2024-03-07T00:46:46;4.90;99.90
45983;DHT22;31711;47.158;7.346;2024-03-07T00:49:12;4.90;99.90
45983;DHT22;31711;47.158;7.346;2024-03-07T00:51:38;5.00;99.90
45983;DHT22;31711;47.158;7.346;2024-03-07T00:54:05;5.10;99.90
45983;DHT22;31711;47.158;7.346;2024-03-07T00:56:31;5.00;99.90
45983;DHT22;31711;47.158;7.346;2024-03-07T00:58:57;5.10;99.90
45983;DHT22;31711;47.158;7.346;2024-03-07T01:01:23;5.00;99.90
45983;DHT22;31711;47.158;7.346;2024-03-07T01:03:49;5.00;99.90
45983;DHT22;31711;47.158;7.346;2024-03-07T01:06:15;5.00;99.90
45983;DHT22;31711;47.158;7.346;2024-03-07T01:08:41;5.00;99.90
45983;DHT22;31711;47.158;7.346;2024-03-07T01:11:07;5.10;99.90
45983;DHT22;31711;47.158;7.346;2024-03-07T01:13:40;5.10;99.90
45983;DHT22;31711;47.158;7.346;2024-03-07T01:16:06;5.10;99.90
45983;DHT22;31711;47.158;7.346;2024-03-07T01:18:33;5.10;99.90
45983;DHT22;31711;47.158;7.346;2024-03-07T01:21:02;5.10;99.90
45983;DHT22;31711;47.158;7.346;2024-03-07T01:23:29;5.10;99.90
45983;DHT22;31711;47.158;7.346;2024-03-07T01:25:59;5.00;99.90
45983;DHT22;31711;47.158;7.346;2024-03-07T01:28:26;5.00;99.90
45983;DHT22;31711;47.158;7.346;2024-03-07T01:30:58;5.00;99.90
45983;DHT22;31711;47.158;7.346;2024-03-07T01:33:25;5.00;99.90
45983;DHT22;31711;47.158;7.346;2024-03-07T01:35:51;5.10;99.90
45983;DHT22;31711;47.158;7.346;2024-03-07T01:38:17;5.10;99.90
45983;DHT22;31711;47.158;7.346;2024-03-07T01:40:43;5.20;99.90
45983;DHT22;31711;47.158;7.346;2024-03-07T01:43:10;5.30;99.90
45983;DHT22;31711;47.158;7.346;2024-03-07T01:45:37;5.30;99.90
45983;DHT22;31711;47.158;7.346;2024-03-07T01:48:05;5.30;99.90
45983;DHT22;31711;47.158;7.346;2024-03-07T01:50:32;5.30;99.90
45983;DHT22;31711;47.158;7.346;2024-03-07T01:52:59;5.20;99.90
45983;DHT22;31711;47.158;7.346;2024-03-07T01:55:27;5.10;99.90
45983;DHT22;31711;47.158;7.346;2024-03-07T01:57:56;5.10;99.90
45983;DHT22;31711;47.158;7.346;2024-03-07T02:00:24;5.10;99.90
45983;DHT22;31711;47.158;7.346;2024-03-07T02:02:49;5.10;99.90
45983;DHT22;31711;47.158;7.346;2024-03-07T02:05:15;5.10;99.90
45983;DHT22;31711;47.158;7.346;2024-03-07T02:07:43;5.20;99.90
45983;DHT22;31711;47.158;7.346;2024-03-07T02:10:09;5.20;99.90
45983;DHT22;31711;47.158;7.346;2024-03-07T02:12:36;5.10;99.90
45983;DHT22;31711;47.158;7.346;2024-03-07T02:15:02;5.20;99.90
45983;DHT22;31711;47.158;7.346;2024-03-07T02:17:29;5.20;99.90
45983;DHT22;31711;47.158;7.346;2024-03-07T02:19:55;5.30;99.90
45983;DHT22;31711;47.158;7.346;2024-03-07T02:22:21;5.10;99.90
45983;DHT22;31711;47.158;7.346;2024-03-07T02:24:47;5.00;99.90
45983;DHT22;31711;47.158;7.346;2024-03-07T02:27:13;5.10;99.90
45983;DHT22;31711;47.158;7.346;2024-03-07T02:29:43;5.10;99.90
45983;DHT22;31711;47.158;7.346;2024-03-07T02:32:09;5.10;99.90
45983;DHT22;31711;47.158;7.346;2024-03-07T02:34:35;5.00;99.90
45983;DHT22;31711;47.158;7.346;2024-03-07T02:37:02;4.90;99.90
45983;DHT22;31711;47.158;7.346;2024-03-07T02:39:28;4.90;99.90
45983;DHT22;31711;47.158;7.346;2024-03-07T02:41:54;5.00;99.90
45983;DHT22;31711;47.158;7.346;2024-03-07T02:44:20;5.00;99.90
45983;DHT22;31711;47.158;7.346;2024-03-07T02:46:46;5.00;99.90
45983;DHT22;31711;47.158;7.346;2024-03-07T02:49:15;5.00;99.90
45983;DHT22;31711;47.158;7.346;2024-03-07T02:51:41;5.00;99.90
45983;DHT22;31711;47.158;7.346;2024-03-07T02:54:09;5.00;99.90
45983;DHT22;31711;47.158;7.346;2024-03-07T02:56:35;4.90;99.90
45983;DHT22;31711;47.158;7.346;2024-03-07T02:59:01;5.00;99.90
45983;DHT22;31711;47.158;7.346;2024-03-07T03:01:27;5.00;99.90
45983;DHT22;31711;47.158;7.346;2024-03-07T03:03:53;5.00;99.90
45983;DHT22;31711;47.158;7.346;2024-03-07T03:06:19;5.00;99.90
45983;DHT22;31711;47.158;7.346;2024-03-07T03:08:48;5.00;99.90
45983;DHT22;31711;47.158;7.346;2024-03-07T03:11:14;5.00;99.90
45983;DHT22;31711;47.158;7.346;2024-03-07T03:13:40;5.00;99.90
45983;DHT22;31711;47.158;7.346;2024-03-07T03:16:06;5.10;99.90
45983;DHT22;31711;47.158;7.346;2024-03-07T03:18:34;5.00;99.90
45983;DHT22;31711;47.158;7.346;2024-03-07T03:21:00;5.10;99.90
45983;DHT22;31711;47.158;7.346;2024-03-07T03:23:28;5.10;99.90
45983;DHT22;31711;47.158;7.346;2024-03-07T03:25:54;5.20;99.90
45983;DHT22;31711;47.158;7.346;2024-03-07T03:28:21;5.10;99.90
45983;DHT22;31711;47.158;7.346;2024-03-07T03:30:48;5.00;99.90
45983;DHT22;31711;47.158;7.346;2024-03-07T03:33:15;4.90;99.90
45983;DHT22;31711;47.158;7.346;2024-03-07T03:35:41;4.80;99.90
45983;DHT22;31711;47.158;7.346;2024-03-07T03:38:08;4.80;99.90
45983;DHT22;31711;47.158;7.346;2024-03-07T03:40:34;4.80;99.90
45983;DHT22;31711;47.158;7.346;2024-03-07T03:43:00;4.70;99.90
45983;DHT22;31711;47.158;7.346;2024-03-07T03:45:27;4.90;99.90
45983;DHT22;31711;47.158;7.346;2024-03-07T03:47:53;4.70;99.90
45983;DHT22;31711;47.158;7.346;2024-03-07T03:50:19;4.80;99.90
45983;DHT22;31711;47.158;7.346;2024-03-07T03:52:46;4.70;99.90
45983;DHT22;31711;47.158;7.346;2024-03-07T03:55:12;4.70;99.90
45983;DHT22;31711;47.158;7.346;2024-03-07T03:57:39;4.70;99.90
45983;DHT22;31711;47.158;7.346;2024-03-07T04:00:06;4.60;99.90
45983;DHT22;31711;47.158;7.346;2024-03-07T04:02:47;4.60;99.90
45983;DHT22;31711;47.158;7.346;2024-03-07T04:05:14;4.70;99.90
45983;DHT22;31711;47.158;7.346;2024-03-07T04:07:41;4.70;99.90
45983;DHT22;31711;47.158;7.346;2024-03-07T04:10:11;4.70;99.90
45983;DHT22;31711;47.158;7.346;2024-03-07T04:12:39;4.60;99.90
45983;DHT22;31711;47.158;7.346;2024-03-07T04:15:07;4.60;99.90
45983;DHT22;31711;47.158;7.346;2024-03-07T04:17:34;4.60;99.90
45983;DHT22;31711;47.158;7.346;2024-03-07T04:20:00;4.50;99.90
45983;DHT22;31711;47.158;7.346;2024-03-07T04:22:27;4.50;99.90
45983;DHT22;31711;47.158;7.346;2024-03-07T04:24:54;4.50;99.90
45983;DHT22;31711;47.158;7.346;2024-03-07T04:27:21;4.50;99.90
45983;DHT22;31711;47.158;7.346;2024-03-07T04:29:47;4.60;99.90
45983;DHT22;31711;47.158;7.346;2024-03-07T04:32:14;4.70;99.90
45983;DHT22;31711;47.158;7.346;2024-03-07T04:34:40;4.70;99.90
45983;DHT22;31711;47.158;7.346;2024-03-07T04:37:06;4.80;99.90
45983;DHT22;31711;47.158;7.346;2024-03-07T04:39:32;4.80;99.90
45983;DHT22;31711;47.158;7.346;2024-03-07T04:42:08;4.80;99.90
45983;DHT22;31711;47.158;7.346;2024-03-07T04:44:36;4.80;99.90
45983;DHT22;31711;47.158;7.346;2024-03-07T04:47:05;4.70;99.90
45983;DHT22;31711;47.158;7.346;2024-03-07T04:49:32;4.70;99.90
45983;DHT22;31711;47.158;7.346;2024-03-07T04:51:59;4.70;99.90
45983;DHT22;31711;47.158;7.346;2024-03-07T04:54:26;4.60;99.90
45983;DHT22;31711;47.158;7.346;2024-03-07T04:56:53;4.60;99.90
45983;DHT22;31711;47.158;7.346;2024-03-07T04:59:21;4.60;99.90
45983;DHT22;31711;47.158;7.346;2024-03-07T05:01:48;4.60;99.90
45983;DHT22;31711;47.158;7.346;2024-03-07T05:04:16;4.60;99.90
45983;DHT22;31711;47.158;7.346;2024-03-07T05:06:42;4.60;99.90
45983;DHT22;31711;47.158;7.346;2024-03-07T05:09:10;4.60;99.90
45983;DHT22;31711;47.158;7.346;2024-03-07T05:11:49;4.50;99.90
45983;DHT22;31711;47.158;7.346;2024-03-07T05:14:18;4.50;99.90
45983;DHT22;31711;47.158;7.346;2024-03-07T05:16:44;4.60;99.90
45983;DHT22;31711;47.158;7.346;2024-03-07T05:19:10;4.50;99.90
45983;DHT22;31711;47.158;7.346;2024-03-07T05:21:36;4.50;99.90
45983;DHT22;31711;47.158;7.346;2024-03-07T05:24:08;4.50;99.90
45983;DHT22;31711;47.158;7.346;2024-03-07T05:26:35;4.50;99.90
45983;DHT22;31711;47.158;7.346;2024-03-07T05:29:07;4.50;99.90
45983;DHT22;31711;47.158;7.346;2024-03-07T05:31:34;4.50;99.90
45983;DHT22;31711;47.158;7.346;2024-03-07T05:34:02;4.40;99.90
45983;DHT22;31711;47.158;7.346;2024-03-07T05:36:34;4.40;99.90
45983;DHT22;31711;47.158;7.346;2024-03-07T05:39:01;4.40;99.90
45983;DHT22;31711;47.158;7.346;2024-03-07T05:41:28;4.30;99.90
45983;DHT22;31711;47.158;7.346;2024-03-07T05:43:55;4.40;99.90
45983;DHT22;31711;47.158;7.346;2024-03-07T05:46:22;4.30;99.90
45983;DHT22;31711;47.158;7.346;2024-03-07T05:49:04;4.30;99.90
45983;DHT22;31711;47.158;7.346;2024-03-07T05:51:30;4.30;99.90
45983;DHT22;31711;47.158;7.346;2024-03-07T05:53:56;4.30;99.90
45983;DHT22;31711;47.158;7.346;2024-03-07T05:56:22;4.20;99.90
45983;DHT22;31711;47.158;7.346;2024-03-07T05:58:48;4.20;99.90
45983;DHT22;31711;47.158;7.346;2024-03-07T06:01:14;4.20;99.90
45983;DHT22;31711;47.158;7.346;2024-03-07T06:03:40;4.30;99.90
45983;DHT22;31711;47.158;7.346;2024-03-07T06:06:06;4.20;99.90
45983;DHT22;31711;47.158;7.346;2024-03-07T06:08:37;4.30;99.90
45983;DHT22;31711;47.158;7.346;2024-03-07T06:11:03;4.30;99.90
45983;DHT22;31711;47.158;7.346;2024-03-07T06:13:29;4.30;99.90
45983;DHT22;31711;47.158;7.346;2024-03-07T06:15:56;4.30;99.90
45983;DHT22;31711;47.158;7.346;2024-03-07T06:18:22;4.20;99.90
45983;DHT22;31711;47.158;7.346;2024-03-07T06:20:48;4.20;99.90
45983;DHT22;31711;47.158;7.346;2024-03-07T06:23:13;4.10;99.90
45983;DHT22;31711;47.158;7.346;2024-03-07T06:25:42;4.10;99.90
45983;DHT22;31711;47.158;7.346;2024-03-07T06:28:17;4.20;99.90
45983;DHT22;31711;47.158;7.346;2024-03-07T06:30:44;4.10;99.90
45983;DHT22;31711;47.158;7.346;2024-03-07T06:33:11;4.10;99.90
45983;DHT22;31711;47.158;7.346;2024-03-07T06:35:38;4.10;99.90
45983;DHT22;31711;47.158;7.346;2024-03-07T06:38:05;4.10;99.90
45983;DHT22;31711;47.158;7.346;2024-03-07T06:40:32;4.10;99.90
45983;DHT22;31711;47.158;7.346;2024-03-07T06:42:59;4.10;99.90
45983;DHT22;31711;47.158;7.346;2024-03-07T06:45:25;4.10;99.90
45983;DHT22;31711;47.158;7.346;2024-03-07T06:47:52;4.10;99.90
45983;DHT22;31711;47.158;7.346;2024-03-07T06:50:21;4.10;99.90
45983;DHT22;31711;47.158;7.346;2024-03-07T06:52:47;4.10;99.90
45983;DHT22;31711;47.158;7.346;2024-03-07T06:55:18;4.20;99.90
45983;DHT22;31711;47.158;7.346;2024-03-07T06:57:45;4.10;99.90
45983;DHT22;31711;47.158;7.346;2024-03-07T07:00:12;4.10;99.90
45983;DHT22;31711;47.158;7.346;2024-03-07T07:02:44;4.20;99.90
45983;DHT22;31711;47.158;7.346;2024-03-07T07:05:11;4.20;99.90
45983;DHT22;31711;47.158;7.346;2024-03-07T07:07:38;4.10;99.90
45983;DHT22;31711;47.158;7.346;2024-03-07T07:10:04;4.10;99.90
45983;DHT22;31711;47.158;7.346;2024-03-07T07:12:33;4.20;99.90
45983;DHT22;31711;47.158;7.346;2024-03-07T07:15:00;4.30;99.90
45983;DHT22;31711;47.158;7.346;2024-03-07T07:17:26;4.20;99.90
45983;DHT22;31711;47.158;7.346;2024-03-07T07:19:56;4.20;99.90
45983;DHT22;31711;47.158;7.346;2024-03-07T07:22:22;4.30;99.90
45983;DHT22;31711;47.158;7.346;2024-03-07T07:24:48;4.40;99.90
45983;DHT22;31711;47.158;7.346;2024-03-07T07:27:15;4.40;99.90
45983;DHT22;31711;47.158;7.346;2024-03-07T07:29:41;4.40;99.90
45983;DHT22;31711;47.158;7.346;2024-03-07T07:32:07;4.40;99.90
45983;DHT22;31711;47.158;7.346;2024-03-07T07:34:33;4.40;99.90
45983;DHT22;31711;47.158;7.346;2024-03-07T07:36:59;4.50;99.90
45983;DHT22;31711;47.158;7.346;2024-03-07T07:39:25;4.60;99.90
45983;DHT22;31711;47.158;7.346;2024-03-07T07:41:51;4.60;99.90
45983;DHT22;31711;47.158;7.346;2024-03-07T07:44:17;4.70;99.90
45983;DHT22;31711;47.158;7.346;2024-03-07T07:46:44;4.80;99.90
45983;DHT22;31711;47.158;7.346;2024-03-07T07:49:10;4.80;99.90
45983;DHT22;31711;47.158;7.346;2024-03-07T07:51:36;4.90;99.90
45983;DHT22;31711;47.158;7.346;2024-03-07T07:54:02;5.00;99.90
45983;DHT22;31711;47.158;7.346;2024-03-07T07:56:28;4.90;99.90
45983;DHT22;31711;47.158;7.346;2024-03-07T07:58:54;4.90;99.90
45983;DHT22;31711;47.158;7.346;2024-03-07T08:01:20;5.00;99.90
45983;DHT22;31711;47.158;7.346;2024-03-07T08:03:46;5.00;99.90
45983;DHT22;31711;47.158;7.346;2024-03-07T08:06:12;5.10;99.90
45983;DHT22;31711;47.158;7.346;2024-03-07T08:08:38;5.20;99.90
45983;DHT22;31711;47.158;7.346;2024-03-07T08:11:05;5.30;99.90
45983;DHT22;31711;47.158;7.346;2024-03-07T08:13:31;5.40;99.90
45983;DHT22;31711;47.158;7.346;2024-03-07T08:15:57;5.40;99.90
45983;DHT22;31711;47.158;7.346;2024-03-07T08:18:23;5.50;99.90
45983;DHT22;31711;47.158;7.346;2024-03-07T08:20:48;5.60;99.90
45983;DHT22;31711;47.158;7.346;2024-03-07T08:23:15;5.50;99.90
45983;DHT22;31711;47.158;7.346;2024-03-07T08:25:41;5.50;99.90
45983;DHT22;31711;47.158;7.346;2024-03-07T08:28:07;5.50;99.90
45983;DHT22;31711;47.158;7.346;2024-03-07T08:30:33;5.50;99.90
45983;DHT22;31711;47.158;7.346;2024-03-07T08:33:00;5.60;99.90
45983;DHT22;31711;47.158;7.346;2024-03-07T08:35:30;5.60;99.90
45983;DHT22;31711;47.158;7.346;2024-03-07T08:37:56;5.70;99.90
45983;DHT22;31711;47.158;7.346;2024-03-07T08:40:24;5.70;99.90
45983;DHT22;31711;47.158;7.346;2024-03-07T08:42:52;5.70;99.90
45983;DHT22;31711;47.158;7.346;2024-03-07T08:45:19;5.80;99.90
45983;DHT22;31711;47.158;7.346;2024-03-07T08:47:46;5.80;99.90
45983;DHT22;31711;47.158;7.346;2024-03-07T08:50:14;5.90;99.90
45983;DHT22;31711;47.158;7.346;2024-03-07T08:52:41;5.90;99.90
45983;DHT22;31711;47.158;7.346;2024-03-07T08:55:09;6.10;99.90
45983;DHT22;31711;47.158;7.346;2024-03-07T08:57:38;6.00;99.90
45983;DHT22;31711;47.158;7.346;2024-03-07T09:00:09;5.90;99.90
45983;DHT22;31711;47.158;7.346;2024-03-07T09:02:39;5.90;99.90
45983;DHT22;31711;47.158;7.346;2024-03-07T09:05:06;5.90;99.90
45983;DHT22;31711;47.158;7.346;2024-03-07T09:07:32;5.90;99.90
45983;DHT22;31711;47.158;7.346;2024-03-07T09:09:58;5.80;99.90
45983;DHT22;31711;47.158;7.346;2024-03-07T09:12:24;5.70;99.90
45983;DHT22;31711;47.158;7.346;2024-03-07T09:14:54;5.60;99.90
45983;DHT22;31711;47.158;7.346;2024-03-07T09:17:21;5.60;99.90
45983;DHT22;31711;47.158;7.346;2024-03-07T09:19:47;5.50;99.90
45983;DHT22;31711;47.158;7.346;2024-03-07T09:22:13;5.60;99.90
45983;DHT22;31711;47.158;7.346;2024-03-07T09:24:39;5.60;99.90
45983;DHT22;31711;47.158;7.346;2024-03-07T09:27:05;5.60;99.90
45983;DHT22;31711;47.158;7.346;2024-03-07T09:29:32;5.60;99.90
45983;DHT22;31711;47.158;7.346;2024-03-07T09:31:57;5.70;99.90
45983;DHT22;31711;47.158;7.346;2024-03-07T09:34:24;5.70;99.90
45983;DHT22;31711;47.158;7.346;2024-03-07T09:36:51;5.80;99.90
45983;DHT22;31711;47.158;7.346;2024-03-07T09:39:18;5.70;99.90
45983;DHT22;31711;47.158;7.346;2024-03-07T09:41:47;5.70;99.90
45983;DHT22;31711;47.158;7.346;2024-03-07T09:44:15;5.60;99.90
45983;DHT22;31711;47.158;7.346;2024-03-07T09:46:55;5.60;99.90
45983;DHT22;31711;47.158;7.346;2024-03-07T09:49:22;5.50;99.90
45983;DHT22;31711;47.158;7.346;2024-03-07T09:51:51;5.50;99.90
45983;DHT22;31711;47.158;7.346;2024-03-07T09:54:23;5.40;99.90
45983;DHT22;31711;47.158;7.346;2024-03-07T09:56:53;5.50;99.90
45983;DHT22;31711;47.158;7.346;2024-03-07T09:59:22;5.50;99.90
45983;DHT22;31711;47.158;7.346;2024-03-07T10:01:51;5.50;99.90
45983;DHT22;31711;47.158;7.346;2024-03-07T10:04:29;5.50;99.90
45983;DHT22;31711;47.158;7.346;2024-03-07T10:06:56;5.50;99.90
45983;DHT22;31711;47.158;7.346;2024-03-07T10:09:23;5.70;99.90
45983;DHT22;31711;47.158;7.346;2024-03-07T10:11:58;5.50;99.90
45983;DHT22;31711;47.158;7.346;2024-03-07T10:14:25;5.60;99.90
45983;DHT22;31711;47.158;7.346;2024-03-07T10:16:54;5.70;99.90
45983;DHT22;31711;47.158;7.346;2024-03-07T10:19:22;5.70;99.90
45983;DHT22;31711;47.158;7.346;2024-03-07T10:21:48;5.70;99.90
45983;DHT22;31711;47.158;7.346;2024-03-07T10:24:14;5.70;99.90
45983;DHT22;31711;47.158;7.346;2024-03-07T10:26:40;5.60;99.90
45983;DHT22;31711;47.158;7.346;2024-03-07T10:29:07;5.70;99.90
45983;DHT22;31711;47.158;7.346;2024-03-07T10:31:34;5.80;99.90
45983;DHT22;31711;47.158;7.346;2024-03-07T10:34:01;6.00;99.90
45983;DHT22;31711;47.158;7.346;2024-03-07T10:36:31;6.00;99.90
45983;DHT22;31711;47.158;7.346;2024-03-07T10:39:00;6.00;99.90
45983;DHT22;31711;47.158;7.346;2024-03-07T10:41:46;6.00;99.90
45983;DHT22;31711;47.158;7.346;2024-03-07T10:44:23;6.00;99.90
45983;DHT22;31711;47.158;7.346;2024-03-07T10:46:54;5.90;99.90
45983;DHT22;31711;47.158;7.346;2024-03-07T10:49:21;6.10;99.90
45983;DHT22;31711;47.158;7.346;2024-03-07T10:52:18;6.10;99.90
45983;DHT22;31711;47.158;7.346;2024-03-07T10:55:15;6.10;99.90
45983;DHT22;31711;47.158;7.346;2024-03-07T10:57:50;6.00;99.90
45983;DHT22;31711;47.158;7.346;2024-03-07T11:00:22;6.00;99.90
45983;DHT22;31711;47.158;7.346;2024-03-07T11:02:56;6.10;99.90
45983;DHT22;31711;47.158;7.346;2024-03-07T11:05:26;6.10;99.90
45983;DHT22;31711;47.158;7.346;2024-03-07T11:08:00;6.10;99.90
45983;DHT22;31711;47.158;7.346;2024-03-07T11:10:30;6.20;99.90
45983;DHT22;31711;47.158;7.346;2024-03-07T11:12:57;6.20;99.90
45983;DHT22;31711;47.158;7.346;2024-03-07T11:15:25;6.20;99.90
45983;DHT22;31711;47.158;7.346;2024-03-07T11:17:54;6.40;99.90
45983;DHT22;31711;47.158;7.346;2024-03-07T11:20:33;6.40;99.90
45983;DHT22;31711;47.158;7.346;2024-03-07T11:22:59;6.50;99.90
45983;DHT22;31711;47.158;7.346;2024-03-07T11:25:27;6.60;99.90
45983;DHT22;31711;47.158;7.346;2024-03-07T11:28:02;6.50;99.90
45983;DHT22;31711;47.158;7.346;2024-03-07T11:30:28;6.60;99.90
45983;DHT22;31711;47.158;7.346;2024-03-07T11:32:54;6.70;99.90
45983;DHT22;31711;47.158;7.346;2024-03-07T11:35:31;6.70;99.90
45983;DHT22;31711;47.158;7.346;2024-03-07T11:37:58;6.70;99.90
45983;DHT22;31711;47.158;7.346;2024-03-07T11:42:53;6.60;99.90
45983;DHT22;31711;47.158;7.346;2024-03-07T11:45:20;6.70;99.90
45983;DHT22;31711;47.158;7.346;2024-03-07T11:47:56;6.60;99.90
45983;DHT22;31711;47.158;7.346;2024-03-07T11:50:27;6.40;99.90
45983;DHT22;31711;47.158;7.346;2024-03-07T11:52:54;6.40;99.90
45983;DHT22;31711;47.158;7.346;2024-03-07T11:55:22;6.40;99.90
45983;DHT22;31711;47.158;7.346;2024-03-07T11:57:49;6.50;99.90
45983;DHT22;31711;47.158;7.346;2024-03-07T12:00:18;6.70;99.90
45983;DHT22;31711;47.158;7.346;2024-03-07T12:02:54;6.80;99.90
45983;DHT22;31711;47.158;7.346;2024-03-07T12:05:21;6.80;99.90
45983;DHT22;31711;47.158;7.346;2024-03-07T12:07:50;6.80;99.90
45983;DHT22;31711;47.158;7.346;2024-03-07T12:10:16;6.70;99.90
45983;DHT22;31711;47.158;7.346;2024-03-07T12:12:50;6.80;99.90
45983;DHT22;31711;47.158;7.346;2024-03-07T12:15:16;7.00;99.90
45983;DHT22;31711;47.158;7.346;2024-03-07T12:17:45;7.10;99.90
45983;DHT22;31711;47.158;7.346;2024-03-07T12:20:21;7.00;99.90
45983;DHT22;31711;47.158;7.346;2024-03-07T12:23:00;7.00;99.90
45983;DHT22;31711;47.158;7.346;2024-03-07T12:25:31;7.20;99.90
45983;DHT22;31711;47.158;7.346;2024-03-07T12:28:06;7.00;99.90
45983;DHT22;31711;47.158;7.346;2024-03-07T12:33:13;7.00;99.90
45983;DHT22;31711;47.158;7.346;2024-03-07T12:35:50;7.10;99.90
45983;DHT22;31711;47.158;7.346;2024-03-07T12:38:19;7.20;99.90
45983;DHT22;31711;47.158;7.346;2024-03-07T12:40:45;7.30;99.90
45983;DHT22;31711;47.158;7.346;2024-03-07T12:43:15;7.30;99.90
45983;DHT22;31711;47.158;7.346;2024-03-07T12:45:48;7.40;99.90
45983;DHT22;31711;47.158;7.346;2024-03-07T12:48:16;7.30;99.90
45983;DHT22;31711;47.158;7.346;2024-03-07T12:50:45;7.40;99.90
45983;DHT22;31711;47.158;7.346;2024-03-07T12:53:11;7.40;99.90
45983;DHT22;31711;47.158;7.346;2024-03-07T12:55:40;7.40;99.90
45983;DHT22;31711;47.158;7.346;2024-03-07T12:58:10;7.30;99.90
45983;DHT22;31711;47.158;7.346;2024-03-07T13:00:39;7.30;99.90
45983;DHT22;31711;47.158;7.346;2024-03-07T13:03:07;7.20;99.90
45983;DHT22;31711;47.158;7.346;2024-03-07T13:05:37;7.50;99.90
45983;DHT22;31711;47.158;7.346;2024-03-07T13:08:07;7.50;99.90
45983;DHT22;31711;47.158;7.346;2024-03-07T13:10:45;7.50;99.90
45983;DHT22;31711;47.158;7.346;2024-03-07T13:13:11;7.50;99.90
45983;DHT22;31711;47.158;7.346;2024-03-07T13:15:37;7.60;99.90
45983;DHT22;31711;47.158;7.346;2024-03-07T13:18:04;7.90;99.90
45983;DHT22;31711;47.158;7.346;2024-03-07T13:20:31;7.80;99.90
45983;DHT22;31711;47.158;7.346;2024-03-07T13:22:58;7.80;99.90
45983;DHT22;31711;47.158;7.346;2024-03-07T13:25:27;7.60;99.90
45983;DHT22;31711;47.158;7.346;2024-03-07T13:28:13;7.70;99.90
45983;DHT22;31711;47.158;7.346;2024-03-07T13:30:43;7.50;99.90
45983;DHT22;31711;47.158;7.346;2024-03-07T13:33:10;7.60;99.90
45983;DHT22;31711;47.158;7.346;2024-03-07T13:35:38;7.80;99.90
45983;DHT22;31711;47.158;7.346;2024-03-07T13:38:04;7.70;99.90
45983;DHT22;31711;47.158;7.346;2024-03-07T13:40:30;7.90;99.90
45983;DHT22;31711;47.158;7.346;2024-03-07T13:42:58;7.60;99.90
45983;DHT22;31711;47.158;7.346;2024-03-07T13:45:28;7.80;99.90
45983;DHT22;31711;47.158;7.346;2024-03-07T13:47:58;7.70;99.90
45983;DHT22;31711;47.158;7.346;2024-03-07T13:50:27;7.80;99.90
45983;DHT22;31711;47.158;7.346;2024-03-07T13:52:56;7.90;99.90
45983;DHT22;31711;47.158;7.346;2024-03-07T14:19:19;7.60;99.90
45983;DHT22;31711;47.158;7.346;2024-03-07T14:30:53;8.90;99.90
45983;DHT22;31711;47.158;7.346;2024-03-07T14:33:35;8.90;99.90
45983;DHT22;31711;47.158;7.346;2024-03-07T14:36:14;8.80;99.90
45983;DHT22;31711;47.158;7.346;2024-03-07T14:38:51;8.50;99.90
45983;DHT22;31711;47.158;7.346;2024-03-07T14:41:24;8.20;99.90
45983;DHT22;31711;47.158;7.346;2024-03-07T14:44:03;8.30;99.90
45983;DHT22;31711;47.158;7.346;2024-03-07T14:46:33;8.70;99.90
45983;DHT22;31711;47.158;7.346;2024-03-07T14:49:00;8.70;99.90
45983;DHT22;31711;47.158;7.346;2024-03-07T14:51:26;8.60;99.90
45983;DHT22;31711;47.158;7.346;2024-03-07T14:53:52;8.50;99.90
45983;DHT22;31711;47.158;7.346;2024-03-07T14:56:18;8.30;99.90
45983;DHT22;31711;47.158;7.346;2024-03-07T14:58:46;8.20;99.90
45983;DHT22;31711;47.158;7.346;2024-03-07T15:01:12;7.90;99.90
45983;DHT22;31711;47.158;7.346;2024-03-07T15:03:39;8.00;99.90
45983;DHT22;31711;47.158;7.346;2024-03-07T15:06:07;7.90;99.90
45983;DHT22;31711;47.158;7.346;2024-03-07T15:08:35;7.80;99.90
45983;DHT22;31711;47.158;7.346;2024-03-07T15:11:14;8.00;99.90
45983;DHT22;31711;47.158;7.346;2024-03-07T15:13:46;8.00;99.90
45983;DHT22;31711;47.158;7.346;2024-03-07T15:16:13;7.90;99.90
45983;DHT22;31711;47.158;7.346;2024-03-07T15:18:39;8.00;99.90
45983;DHT22;31711;47.158;7.346;2024-03-07T15:21:07;8.40;99.90
45983;DHT22;31711;47.158;7.346;2024-03-07T15:23:35;8.60;99.90
45983;DHT22;31711;47.158;7.346;2024-03-07T15:26:02;8.50;99.90
45983;DHT22;31711;47.158;7.346;2024-03-07T15:28:28;8.10;99.90
45983;DHT22;31711;47.158;7.346;2024-03-07T15:30:55;8.00;99.90
45983;DHT22;31711;47.158;7.346;2024-03-07T15:33:21;8.10;99.90
45983;DHT22;31711;47.158;7.346;2024-03-07T15:35:48;8.00;99.90
45983;DHT22;31711;47.158;7.346;2024-03-07T15:38:19;8.00;99.90
45983;DHT22;31711;47.158;7.346;2024-03-07T15:40:45;7.90;99.90
45983;DHT22;31711;47.158;7.346;2024-03-07T15:43:11;7.80;99.90
45983;DHT22;31711;47.158;7.346;2024-03-07T15:45:38;7.80;99.90
45983;DHT22;31711;47.158;7.346;2024-03-07T15:48:05;7.80;99.90
45983;DHT22;31711;47.158;7.346;2024-03-07T15:50:34;7.90;99.90
45983;DHT22;31711;47.158;7.346;2024-03-07T15:53:02;8.00;99.90
45983;DHT22;31711;47.158;7.346;2024-03-07T15:55:30;8.10;99.90
45983;DHT22;31711;47.158;7.346;2024-03-07T15:58:00;7.90;99.90
45983;DHT22;31711;47.158;7.346;2024-03-07T16:00:30;7.60;99.90
45983;DHT22;31711;47.158;7.346;2024-03-07T16:02:58;7.50;99.90
45983;DHT22;31711;47.158;7.346;2024-03-07T16:05:26;7.30;99.90
45983;DHT22;31711;47.158;7.346;2024-03-07T16:07:55;7.10;99.90
45983;DHT22;31711;47.158;7.346;2024-03-07T16:10:23;7.00;99.90
45983;DHT22;31711;47.158;7.346;2024-03-07T16:12:53;6.80;99.90
45983;DHT22;31711;47.158;7.346;2024-03-07T16:15:20;6.80;99.90
45983;DHT22;31711;47.158;7.346;2024-03-07T16:17:48;6.70;99.90
45983;DHT22;31711;47.158;7.346;2024-03-07T16:20:14;6.70;99.90
45983;DHT22;31711;47.158;7.346;2024-03-07T16:22:41;6.70;99.90
45983;DHT22;31711;47.158;7.346;2024-03-07T16:25:08;6.70;99.90
45983;DHT22;31711;47.158;7.346;2024-03-07T16:27:36;6.60;99.90